Time;durP1;ratioP1;P1;durP2;ratioP2;P2;SDS_P1;SDS_P2;PMS_P1;PMS_P2;Temp;Humidity;BMP_temperature;BMP_pressure;BME280_temperature;BME280_humidity;BME280_pressure;Samples;Min_cycle;Max_cycle;Signal;HPM_P1;HPM_P2
2023/08/04 00:01:18;;;;;;;0.93;0.87;;;;;;;;;;5091084;28;20270;-64
2023/08/04 00:03:46;;;;;;;2.90;1.80;;;;;;;;;;5098257;28;20658;-65
2023/08/04 00:06:14;;;;;;;2.87;1.90;;;;;;;;;;5098406;28;20208;-65
2023/08/04 00:08:42;;;;;;;4.83;2.77;;;;;;;;;;5098510;28;20207;-65
2023/08/04 00:11:10;;;;;;;2.07;1.50;;;;;;;;;;5098105;28;20662;-65
2023/08/04 00:13:39;;;;;;;1.87;1.20;;;;;;;;;;5098256;28;20228;-64
2023/08/04 00:16:07;;;;;;;2.17;1.47;;;;;;;;;;5097795;28;20208;-64
2023/08/04 00:18:35;;;;;;;1.20;1.10;;;;;;;;;;5098335;28;20203;-64
2023/08/04 00:21:03;;;;;;;1.27;1.00;;;;;;;;;;5098058;28;20229;-64
2023/08/04 00:23:31;;;;;;;0.80;0.67;;;;;;;;;;5098211;28;20238;-65
2023/08/04 00:25:58;;;;;;;2.20;0.70;;;;;;;;;;5098261;28;20209;-64
2023/08/04 00:28:27;;;;;;;0.80;0.50;;;;;;;;;;5098223;28;20209;-65
2023/08/04 00:30:56;;;;;;;0.80;0.80;;;;;;;;;;5097480;28;20231;-64
2023/08/04 00:33:24;;;;;;;0.60;0.60;;;;;;;;;;5097854;28;20238;-64
2023/08/04 00:35:51;;;;;;;0.40;0.40;;;;;;;;;;5097818;28;20635;-64
2023/08/04 00:38:19;;;;;;;0.67;0.60;;;;;;;;;;5098053;28;20210;-64
2023/08/04 00:40:47;;;;;;;1.27;0.30;;;;;;;;;;5090891;28;20218;-65
2023/08/04 00:43:15;;;;;;;0.37;0.23;;;;;;;;;;5097833;28;20635;-64
2023/08/04 00:45:42;;;;;;;0.40;0.20;;;;;;;;;;5098031;28;20206;-64
2023/08/04 00:48:12;;;;;;;0.30;0.30;;;;;;;;;;5097971;28;20212;-65
2023/08/04 00:50:40;;;;;;;0.23;0.23;;;;;;;;;;5097553;28;20224;-65
2023/08/04 00:53:09;;;;;;;0.30;0.30;;;;;;;;;;5097820;28;20813;-65
2023/08/04 00:55:37;;;;;;;1.37;0.30;;;;;;;;;;5097944;28;20235;-65
2023/08/04 00:58:04;;;;;;;1.10;0.23;;;;;;;;;;5097735;28;20216;-65
2023/08/04 01:00:32;;;;;;;0.10;0.10;;;;;;;;;;5087952;28;20276;-64
2023/08/04 01:03:00;;;;;;;0.20;0.20;;;;;;;;;;5097679;28;20208;-65
2023/08/04 01:05:32;;;;;;;0.40;0.30;;;;;;;;;;5097848;28;20201;-64
2023/08/04 01:08:05;;;;;;;0.60;0.30;;;;;;;;;;5097497;28;20244;-65
2023/08/04 01:10:38;;;;;;;0.27;0.27;;;;;;;;;;5097828;28;20222;-64
2023/08/04 01:13:07;;;;;;;0.20;0.20;;;;;;;;;;5097754;28;20214;-64
2023/08/04 01:15:35;;;;;;;0.10;0.10;;;;;;;;;;5097796;28;20203;-65
2023/08/04 01:18:03;;;;;;;0.20;0.17;;;;;;;;;;5097254;28;20218;-65
2023/08/04 01:20:32;;;;;;;0.97;0.30;;;;;;;;;;5097742;28;20227;-64
2023/08/04 01:23:01;;;;;;;1.30;0.30;;;;;;;;;;5097591;28;20649;-65
2023/08/04 01:25:30;;;;;;;0.50;0.30;;;;;;;;;;5101054;28;20245;-65
2023/08/04 01:28:00;;;;;;;0.70;0.30;;;;;;;;;;5101521;28;20220;-64
2023/08/04 01:30:28;;;;;;;1.63;0.40;;;;;;;;;;5101171;28;20225;-64
2023/08/04 01:32:56;;;;;;;0.10;0.10;;;;;;;;;;5101091;28;20206;-65
2023/08/04 01:35:24;;;;;;;0.80;0.37;;;;;;;;;;5101463;28;20789;-65
2023/08/04 01:37:52;;;;;;;1.07;0.53;;;;;;;;;;5101220;28;20294;-65
2023/08/04 01:40:21;;;;;;;0.50;0.40;;;;;;;;;;5094485;28;20221;-64
2023/08/04 01:42:48;;;;;;;0.53;0.40;;;;;;;;;;5101122;28;20206;-65
2023/08/04 01:45:16;;;;;;;2.30;1.00;;;;;;;;;;5101304;28;20206;-64
2023/08/04 01:47:45;;;;;;;1.60;0.30;;;;;;;;;;5100972;28;20217;-65
2023/08/04 01:50:13;;;;;;;0.33;0.33;;;;;;;;;;5101086;28;20231;-65
2023/08/04 01:52:41;;;;;;;0.93;0.30;;;;;;;;;;5101025;28;20201;-64
2023/08/04 01:55:09;;;;;;;0.70;0.40;;;;;;;;;;5100958;28;20232;-64
2023/08/04 01:57:38;;;;;;;1.50;0.40;;;;;;;;;;5100767;28;20211;-65
2023/08/04 02:00:07;;;;;;;1.20;0.50;;;;;;;;;;5090242;28;20248;-64
2023/08/04 02:02:35;;;;;;;0.77;0.47;;;;;;;;;;5100692;28;20294;-65
2023/08/04 02:05:03;;;;;;;0.67;0.40;;;;;;;;;;5100901;28;20225;-64
2023/08/04 02:07:32;;;;;;;1.23;0.37;;;;;;;;;;5100458;28;20284;-65
2023/08/04 02:10:00;;;;;;;0.87;0.40;;;;;;;;;;5100730;28;20229;-64
2023/08/04 02:12:27;;;;;;;0.30;0.20;;;;;;;;;;5100759;28;20212;-65
2023/08/04 02:14:56;;;;;;;0.40;0.40;;;;;;;;;;5100571;28;20234;-65
2023/08/04 02:17:24;;;;;;;0.80;0.30;;;;;;;;;;5100169;28;20209;-64
2023/08/04 02:19:52;;;;;;;0.53;0.43;;;;;;;;;;5100585;28;20229;-64
2023/08/04 02:22:20;;;;;;;0.57;0.30;;;;;;;;;;5100463;28;20210;-65
2023/08/04 02:24:49;;;;;;;1.67;0.60;;;;;;;;;;5100467;28;20205;-65
2023/08/04 02:27:16;;;;;;;0.37;0.37;;;;;;;;;;5100523;28;20669;-65
2023/08/04 02:29:44;;;;;;;2.30;0.50;;;;;;;;;;5100043;28;20216;-65
2023/08/04 02:32:13;;;;;;;0.60;0.47;;;;;;;;;;5100114;28;20666;-65
2023/08/04 02:34:41;;;;;;;1.83;0.43;;;;;;;;;;5100031;28;20242;-65
2023/08/04 02:37:08;;;;;;;3.60;0.50;;;;;;;;;;5099235;28;20211;-65
2023/08/04 02:39:36;;;;;;;1.30;0.40;;;;;;;;;;5099393;28;20209;-65
2023/08/04 02:42:04;;;;;;;0.70;0.20;;;;;;;;;;5093990;28;20210;-65
2023/08/04 02:44:32;;;;;;;0.60;0.37;;;;;;;;;;5099887;28;20341;-65
2023/08/04 02:46:59;;;;;;;1.70;0.60;;;;;;;;;;5099764;28;20212;-65
2023/08/04 02:49:28;;;;;;;1.43;0.70;;;;;;;;;;5099839;28;20198;-65
2023/08/04 02:51:56;;;;;;;1.33;0.50;;;;;;;;;;5099799;28;20293;-65
2023/08/04 02:54:24;;;;;;;0.40;0.37;;;;;;;;;;5099664;28;20568;-65
2023/08/04 02:56:52;;;;;;;2.47;0.80;;;;;;;;;;5099826;28;20235;-64
2023/08/04 02:59:19;;;;;;;0.67;0.50;;;;;;;;;;5094044;28;20302;-64
2023/08/04 03:01:47;;;;;;;1.20;0.40;;;;;;;;;;5095688;28;20252;-65
2023/08/04 03:04:15;;;;;;;0.57;0.57;;;;;;;;;;5099528;28;20233;-65
2023/08/04 03:06:44;;;;;;;0.50;0.50;;;;;;;;;;5099535;28;20203;-65
2023/08/04 03:09:12;;;;;;;0.40;0.40;;;;;;;;;;5099730;28;20210;-65
2023/08/04 03:11:40;;;;;;;0.27;0.27;;;;;;;;;;5099462;28;20229;-65
2023/08/04 03:14:08;;;;;;;1.57;0.40;;;;;;;;;;5099469;28;20215;-65
2023/08/04 03:16:35;;;;;;;0.53;0.40;;;;;;;;;;5099188;28;20205;-65
2023/08/04 03:19:03;;;;;;;0.70;0.57;;;;;;;;;;5099574;28;20289;-65
2023/08/04 03:21:31;;;;;;;0.77;0.37;;;;;;;;;;5099173;28;20230;-65
2023/08/04 03:24:00;;;;;;;0.83;0.50;;;;;;;;;;5099411;28;20216;-65
2023/08/04 03:26:27;;;;;;;0.40;0.40;;;;;;;;;;5098986;28;20567;-65
2023/08/04 03:28:55;;;;;;;0.90;0.50;;;;;;;;;;5099338;28;20251;-65
2023/08/04 03:31:23;;;;;;;0.77;0.57;;;;;;;;;;5098748;28;20242;-64
2023/08/04 03:33:51;;;;;;;1.20;0.40;;;;;;;;;;5098987;28;20213;-65
2023/08/04 03:36:18;;;;;;;0.30;0.30;;;;;;;;;;5098869;28;20227;-65
2023/08/04 03:38:46;;;;;;;0.27;0.27;;;;;;;;;;5098819;28;20258;-65
2023/08/04 03:41:15;;;;;;;1.17;0.30;;;;;;;;;;5091242;28;20734;-65
2023/08/04 03:43:43;;;;;;;0.47;0.33;;;;;;;;;;5098981;28;20644;-65
2023/08/04 03:46:11;;;;;;;1.47;0.40;;;;;;;;;;5098658;28;20292;-65
2023/08/04 03:48:39;;;;;;;0.83;0.63;;;;;;;;;;5098376;28;20245;-65
2023/08/04 03:51:06;;;;;;;0.87;0.50;;;;;;;;;;5098399;28;20594;-65
2023/08/04 03:53:34;;;;;;;0.43;0.43;;;;;;;;;;5098789;28;20240;-65
2023/08/04 03:56:02;;;;;;;2.03;0.67;;;;;;;;;;5098711;28;20231;-65
2023/08/04 03:58:31;;;;;;;1.60;0.50;;;;;;;;;;5098766;28;20220;-65
2023/08/04 04:00:59;;;;;;;2.67;0.43;;;;;;;;;;5087886;28;20244;-65
2023/08/04 04:03:27;;;;;;;1.83;0.60;;;;;;;;;;5098363;28;20213;-65
2023/08/04 04:05:55;;;;;;;1.27;0.87;;;;;;;;;;5098634;28;20228;-65
2023/08/04 04:08:23;;;;;;;0.73;0.37;;;;;;;;;;5098543;28;20222;-65
2023/08/04 04:10:50;;;;;;;0.30;0.30;;;;;;;;;;5098454;28;20320;-65
2023/08/04 04:13:18;;;;;;;0.73;0.37;;;;;;;;;;5098469;28;20216;-65
2023/08/04 04:15:47;;;;;;;2.00;0.47;;;;;;;;;;5098131;28;20238;-65
2023/08/04 04:18:15;;;;;;;1.30;0.30;;;;;;;;;;5098379;28;20212;-65
2023/08/04 04:20:43;;;;;;;0.23;0.23;;;;;;;;;;5098122;28;20227;-65
2023/08/04 04:23:10;;;;;;;1.23;0.43;;;;;;;;;;5097978;28;20578;-65
2023/08/04 04:25:38;;;;;;;1.13;0.63;;;;;;;;;;5098109;28;20548;-65
2023/08/04 04:28:06;;;;;;;1.17;0.50;;;;;;;;;;5098225;28;20211;-65
2023/08/04 04:30:33;;;;;;;0.50;0.33;;;;;;;;;;5097812;28;20308;-65
2023/08/04 04:33:03;;;;;;;1.03;0.43;;;;;;;;;;5097814;28;20572;-65
2023/08/04 04:35:30;;;;;;;1.00;0.30;;;;;;;;;;5098176;28;20318;-65
2023/08/04 04:37:58;;;;;;;1.90;0.60;;;;;;;;;;5097734;28;20687;-65
2023/08/04 04:40:26;;;;;;;1.20;0.50;;;;;;;;;;5090137;28;20230;-65
2023/08/04 04:42:54;;;;;;;1.87;0.50;;;;;;;;;;5097868;28;20241;-65
2023/08/04 04:45:21;;;;;;;1.80;0.50;;;;;;;;;;5097760;28;20209;-65
2023/08/04 04:47:50;;;;;;;1.23;0.53;;;;;;;;;;5097810;28;20206;-65
2023/08/04 04:50:19;;;;;;;2.80;0.30;;;;;;;;;;5097666;28;20280;-65
2023/08/04 04:52:47;;;;;;;0.90;0.60;;;;;;;;;;5097644;28;20207;-64
2023/08/04 04:55:15;;;;;;;0.40;0.33;;;;;;;;;;5097910;28;20325;-64
2023/08/04 04:57:42;;;;;;;0.57;0.30;;;;;;;;;;5098053;28;20206;-64
2023/08/04 05:00:11;;;;;;;4.07;0.80;;;;;;;;;;5090643;28;20248;-64
2023/08/04 05:02:39;;;;;;;1.17;0.60;;;;;;;;;;5101838;28;20292;-64
2023/08/04 05:05:07;;;;;;;0.77;0.50;;;;;;;;;;5101980;28;20216;-63
2023/08/04 05:07:36;;;;;;;2.40;0.70;;;;;;;;;;5101934;28;20266;-64
2023/08/04 05:10:04;;;;;;;0.97;0.43;;;;;;;;;;5101958;28;20234;-65
2023/08/04 05:12:32;;;;;;;1.47;0.57;;;;;;;;;;5101660;28;20291;-63
2023/08/04 05:14:59;;;;;;;2.40;0.50;;;;;;;;;;5101751;28;20229;-65
2023/08/04 05:17:27;;;;;;;2.23;0.70;;;;;;;;;;5101338;28;20631;-64
2023/08/04 05:19:55;;;;;;;0.50;0.50;;;;;;;;;;5101614;28;20710;-64
2023/08/04 05:22:23;;;;;;;1.33;0.53;;;;;;;;;;5101630;28;20213;-65
2023/08/04 05:24:52;;;;;;;3.87;0.80;;;;;;;;;;5101609;28;20211;-64
2023/08/04 05:27:37;;;;;;;0.67;0.40;;;;;;;;;;5101608;28;20215;-64
2023/08/04 05:30:05;;;;;;;0.87;0.33;;;;;;;;;;5101333;28;20256;-65
2023/08/04 05:32:33;;;;;;;1.23;0.30;;;;;;;;;;5101128;28;20275;-65
2023/08/04 05:35:01;;;;;;;0.47;0.43;;;;;;;;;;5101457;28;20215;-65
2023/08/04 05:37:28;;;;;;;1.53;0.50;;;;;;;;;;5100935;28;20274;-65
2023/08/04 05:39:58;;;;;;;0.40;0.40;;;;;;;;;;5097513;28;20214;-65
2023/08/04 05:42:25;;;;;;;1.33;0.73;;;;;;;;;;5098416;28;20211;-64
2023/08/04 05:44:53;;;;;;;0.30;0.30;;;;;;;;;;5101303;28;20213;-64
2023/08/04 05:47:25;;;;;;;0.33;0.30;;;;;;;;;;5100967;28;20213;-64
2023/08/04 05:49:53;;;;;;;2.03;0.63;;;;;;;;;;5101073;28;20229;-62
2023/08/04 05:52:21;;;;;;;1.10;0.30;;;;;;;;;;5100986;28;20212;-64
2023/08/04 05:54:48;;;;;;;0.67;0.40;;;;;;;;;;5100857;28;20566;-63
2023/08/04 05:57:17;;;;;;;2.37;0.50;;;;;;;;;;5100849;28;20256;-63
2023/08/04 05:59:45;;;;;;;3.13;0.47;;;;;;;;;;5091457;28;20241;-62
2023/08/04 06:02:13;;;;;;;0.47;0.40;;;;;;;;;;5100408;28;20288;-64
2023/08/04 06:04:41;;;;;;;0.33;0.33;;;;;;;;;;5100854;28;20205;-64
2023/08/04 06:07:08;;;;;;;1.07;0.60;;;;;;;;;;5100744;28;20208;-63
2023/08/04 06:09:36;;;;;;;0.50;0.50;;;;;;;;;;5100508;28;20205;-63
2023/08/04 06:12:04;;;;;;;0.40;0.40;;;;;;;;;;5100680;28;20214;-64
2023/08/04 06:14:33;;;;;;;1.27;0.50;;;;;;;;;;5100600;28;20205;-65
2023/08/04 06:17:01;;;;;;;0.63;0.50;;;;;;;;;;5100036;28;20257;-62
2023/08/04 06:19:29;;;;;;;0.50;0.50;;;;;;;;;;5100544;28;20645;-63
2023/08/04 06:21:56;;;;;;;1.57;0.53;;;;;;;;;;5100476;28;20206;-62
2023/08/04 06:24:27;;;;;;;0.83;0.60;;;;;;;;;;5100476;28;20214;-62
2023/08/04 06:26:55;;;;;;;0.93;0.47;;;;;;;;;;5100338;28;20289;-64
2023/08/04 06:29:23;;;;;;;0.70;0.70;;;;;;;;;;5100466;28;20296;-64
2023/08/04 06:31:52;;;;;;;0.80;0.60;;;;;;;;;;5099643;28;20748;-63
2023/08/04 06:34:20;;;;;;;2.10;0.47;;;;;;;;;;5100287;28;20209;-63
2023/08/04 06:36:48;;;;;;;0.70;0.70;;;;;;;;;;5100045;28;20232;-63
2023/08/04 06:39:16;;;;;;;1.57;0.70;;;;;;;;;;5100214;28;20201;-63
2023/08/04 06:41:44;;;;;;;0.67;0.67;;;;;;;;;;5093216;28;20737;-62
2023/08/04 06:44:14;;;;;;;0.70;0.70;;;;;;;;;;5100122;28;20240;-63
2023/08/04 06:46:42;;;;;;;0.67;0.67;;;;;;;;;;5099885;28;20209;-62
2023/08/04 06:49:11;;;;;;;0.73;0.70;;;;;;;;;;5099661;28;20202;-63
2023/08/04 06:51:39;;;;;;;1.70;0.60;;;;;;;;;;5099636;28;20225;-64
2023/08/04 06:54:06;;;;;;;1.23;0.67;;;;;;;;;;5099777;28;20205;-64
2023/08/04 06:56:34;;;;;;;1.03;0.60;;;;;;;;;;5099864;28;20235;-64
2023/08/04 06:59:02;;;;;;;2.27;0.73;;;;;;;;;;5083055;28;20217;-64
2023/08/04 07:01:29;;;;;;;0.70;0.70;;;;;;;;;;5092893;28;20395;-64
2023/08/04 07:03:57;;;;;;;0.70;0.70;;;;;;;;;;5099372;28;20638;-64
2023/08/04 07:06:26;;;;;;;1.53;0.77;;;;;;;;;;5099282;28;20202;-64
2023/08/04 07:08:54;;;;;;;0.70;0.70;;;;;;;;;;5099459;28;20206;-64
2023/08/04 07:11:22;;;;;;;0.80;0.80;;;;;;;;;;5099268;28;20299;-64
2023/08/04 07:13:49;;;;;;;0.70;0.70;;;;;;;;;;5099557;28;20215;-62
2023/08/04 07:16:17;;;;;;;0.67;0.63;;;;;;;;;;5098852;28;20209;-62
2023/08/04 07:18:45;;;;;;;0.70;0.70;;;;;;;;;;5099555;28;20661;-63
2023/08/04 07:21:13;;;;;;;1.03;0.83;;;;;;;;;;5098841;28;20225;-64
2023/08/04 07:23:42;;;;;;;1.10;1.00;;;;;;;;;;5099180;28;20205;-64
2023/08/04 07:26:10;;;;;;;0.70;0.70;;;;;;;;;;5099289;28;20205;-64
2023/08/04 07:28:38;;;;;;;1.07;1.07;;;;;;;;;;5099064;28;20781;-64
2023/08/04 07:31:06;;;;;;;4.40;1.13;;;;;;;;;;5098570;28;20226;-64
2023/08/04 07:33:34;;;;;;;1.27;0.93;;;;;;;;;;5099219;28;20285;-64
2023/08/04 07:36:02;;;;;;;1.10;0.80;;;;;;;;;;5099060;28;20212;-64
2023/08/04 07:38:30;;;;;;;1.50;0.70;;;;;;;;;;5098778;28;20221;-64
2023/08/04 07:41:00;;;;;;;1.10;1.00;;;;;;;;;;5091570;28;20316;-64
2023/08/04 07:43:27;;;;;;;1.47;0.73;;;;;;;;;;5099114;28;20258;-63
2023/08/04 07:45:55;;;;;;;1.03;0.63;;;;;;;;;;5098773;28;20238;-63
2023/08/04 07:48:23;;;;;;;1.50;0.93;;;;;;;;;;5098992;28;20234;-63
2023/08/04 07:50:51;;;;;;;0.80;0.80;;;;;;;;;;5098394;28;20229;-62
2023/08/04 07:53:19;;;;;;;1.30;0.83;;;;;;;;;;5098471;28;20209;-62
2023/08/04 07:55:56;;;;;;;1.40;0.97;;;;;;;;;;5098723;28;20259;-63
2023/08/04 07:58:25;;;;;;;0.87;0.87;;;;;;;;;;5098263;28;20231;-63
2023/08/04 08:00:53;;;;;;;0.70;0.70;;;;;;;;;;5088381;28;20719;-63
2023/08/04 08:03:21;;;;;;;0.90;0.60;;;;;;;;;;5098630;28;20202;-63
2023/08/04 08:05:49;;;;;;;1.47;1.00;;;;;;;;;;5098578;28;20230;-63
2023/08/04 08:08:17;;;;;;;1.80;0.70;;;;;;;;;;5098452;28;20675;-63
2023/08/04 08:10:45;;;;;;;1.07;0.93;;;;;;;;;;5098520;28;20685;-64
2023/08/04 08:13:13;;;;;;;0.90;0.73;;;;;;;;;;5098530;28;20270;-63
2023/08/04 08:15:42;;;;;;;1.23;0.87;;;;;;;;;;5098203;28;20213;-64
2023/08/04 08:18:10;;;;;;;0.90;0.90;;;;;;;;;;5098271;28;20731;-63
2023/08/04 08:20:39;;;;;;;0.83;0.70;;;;;;;;;;5098360;28;20260;-64
2023/08/04 08:23:07;;;;;;;1.40;0.60;;;;;;;;;;5098218;28;20722;-63
2023/08/04 08:25:35;;;;;;;2.20;0.70;;;;;;;;;;5098154;28;20233;-63
2023/08/04 08:28:03;;;;;;;0.93;0.70;;;;;;;;;;5097951;28;20216;-63
2023/08/04 08:30:31;;;;;;;3.93;1.37;;;;;;;;;;5097913;28;20327;-63
2023/08/04 08:33:00;;;;;;;1.27;1.17;;;;;;;;;;5097665;28;20206;-62
2023/08/04 08:35:28;;;;;;;3.50;1.27;;;;;;;;;;5097791;28;20202;-63
2023/08/04 08:37:55;;;;;;;4.67;1.00;;;;;;;;;;5097948;28;20221;-63
2023/08/04 08:40:25;;;;;;;2.07;1.20;;;;;;;;;;5091534;28;20225;-62
2023/08/04 08:42:54;;;;;;;2.10;1.03;;;;;;;;;;5098116;28;20259;-64
2023/08/04 08:45:23;;;;;;;1.97;0.83;;;;;;;;;;5097974;28;20288;-64
2023/08/04 08:47:51;;;;;;;4.00;1.20;;;;;;;;;;5097818;28;20565;-63
2023/08/04 08:50:23;;;;;;;5.63;0.87;;;;;;;;;;5097812;28;20225;-63
2023/08/04 08:52:52;;;;;;;1.07;1.00;;;;;;;;;;5097647;28;20237;-63
2023/08/04 08:55:20;;;;;;;0.80;0.70;;;;;;;;;;5097736;28;20615;-63
2023/08/04 08:57:47;;;;;;;0.70;0.70;;;;;;;;;;5097886;28;20323;-63
2023/08/04 09:00:17;;;;;;;1.20;0.60;;;;;;;;;;5088397;28;20272;-64
2023/08/04 09:02:45;;;;;;;0.67;0.67;;;;;;;;;;5097552;28;20247;-64
2023/08/04 09:05:14;;;;;;;1.23;0.87;;;;;;;;;;5097870;28;20205;-63
2023/08/04 09:07:43;;;;;;;1.00;0.93;;;;;;;;;;5097752;28;20269;-63
2023/08/04 09:10:11;;;;;;;1.03;0.70;;;;;;;;;;5097769;28;20225;-63
2023/08/04 09:12:44;;;;;;;1.40;0.70;;;;;;;;;;5097808;28;20291;-64
2023/08/04 09:15:12;;;;;;;0.90;0.90;;;;;;;;;;5097826;28;20237;-63
2023/08/04 09:17:40;;;;;;;2.07;0.90;;;;;;;;;;5097438;28;20247;-63
2023/08/04 09:20:09;;;;;;;1.50;1.40;;;;;;;;;;5097734;28;20312;-63
2023/08/04 09:22:38;;;;;;;1.17;0.80;;;;;;;;;;5097314;28;20662;-64
2023/08/04 09:25:08;;;;;;;1.47;0.80;;;;;;;;;;5097718;28;20206;-64
2023/08/04 09:27:37;;;;;;;1.20;1.07;;;;;;;;;;5097760;28;20202;-63
2023/08/04 09:30:07;;;;;;;1.03;1.00;;;;;;;;;;5097209;28;20228;-62
2023/08/04 09:32:40;;;;;;;1.43;1.33;;;;;;;;;;5097268;28;20656;-64
2023/08/04 09:35:09;;;;;;;1.40;1.13;;;;;;;;;;5097683;28;20251;-64
2023/08/04 09:37:37;;;;;;;0.93;0.83;;;;;;;;;;5097458;28;20626;-64
2023/08/04 09:40:12;;;;;;;0.93;0.90;;;;;;;;;;5092714;28;20305;-64
2023/08/04 09:42:41;;;;;;;1.07;0.90;;;;;;;;;;5096450;28;20209;-64
2023/08/04 09:45:12;;;;;;;3.17;1.37;;;;;;;;;;5098420;28;20231;-64
2023/08/04 09:47:40;;;;;;;1.93;1.23;;;;;;;;;;5100858;28;20639;-64
2023/08/04 09:50:11;;;;;;;1.20;1.10;;;;;;;;;;5101087;28;20218;-64
2023/08/04 09:52:38;;;;;;;2.07;1.10;;;;;;;;;;5101078;28;20202;-64
2023/08/04 09:55:09;;;;;;;1.93;1.20;;;;;;;;;;5101013;28;20269;-64
2023/08/04 09:57:37;;;;;;;1.70;0.83;;;;;;;;;;5101057;28;20209;-64
2023/08/04 10:00:08;;;;;;;1.00;1.00;;;;;;;;;;5091546;28;20233;-64
2023/08/04 10:02:36;;;;;;;2.53;1.00;;;;;;;;;;5100813;28;20205;-64
2023/08/04 10:05:05;;;;;;;1.13;1.03;;;;;;;;;;5100885;28;20266;-64
2023/08/04 10:07:34;;;;;;;1.53;1.00;;;;;;;;;;5100555;28;20237;-64
2023/08/04 10:10:04;;;;;;;2.40;1.40;;;;;;;;;;5100682;28;20247;-63
2023/08/04 10:12:34;;;;;;;1.40;1.30;;;;;;;;;;5100865;28;20292;-63
2023/08/04 10:15:02;;;;;;;1.10;1.10;;;;;;;;;;5100675;28;20215;-63
2023/08/04 10:17:32;;;;;;;1.13;1.07;;;;;;;;;;5100163;28;20206;-63
2023/08/04 10:20:03;;;;;;;1.10;1.10;;;;;;;;;;5100619;28;20237;-64
2023/08/04 10:22:32;;;;;;;1.60;1.50;;;;;;;;;;5100213;28;20237;-63
2023/08/04 10:25:00;;;;;;;3.13;1.40;;;;;;;;;;5100543;28;20213;-63
2023/08/04 10:27:28;;;;;;;4.97;1.23;;;;;;;;;;5100412;28;20219;-63
2023/08/04 10:30:03;;;;;;;1.50;1.40;;;;;;;;;;5100124;28;20570;-63
2023/08/04 10:32:36;;;;;;;2.70;1.47;;;;;;;;;;5100037;28;20273;-64
2023/08/04 10:35:05;;;;;;;1.60;1.10;;;;;;;;;;5100426;28;20216;-63
2023/08/04 10:37:44;;;;;;;3.60;1.27;;;;;;;;;;5100232;28;20233;-63
2023/08/04 10:40:12;;;;;;;1.40;1.10;;;;;;;;;;5094374;28;20275;-63
2023/08/04 10:42:59;;;;;;;1.30;1.10;;;;;;;;;;5099783;28;20288;-63
2023/08/04 10:45:42;;;;;;;2.10;1.80;;;;;;;;;;5099756;28;20208;-62
2023/08/04 10:48:14;;;;;;;1.67;1.50;;;;;;;;;;5099639;28;20207;-63
2023/08/04 10:50:42;;;;;;;2.30;1.17;;;;;;;;;;5099586;28;20228;-64
2023/08/04 10:53:11;;;;;;;1.27;1.17;;;;;;;;;;5099342;28;20216;-64
2023/08/04 10:55:50;;;;;;;2.10;1.07;;;;;;;;;;5099383;28;20219;-64
2023/08/04 10:58:18;;;;;;;2.53;1.40;;;;;;;;;;5098942;28;20292;-64
2023/08/04 11:00:45;;;;;;;3.87;1.83;;;;;;;;;;5089571;28;20243;-65
2023/08/04 11:03:22;;;;;;;1.17;1.07;;;;;;;;;;5099763;28;20251;-65
2023/08/04 11:05:50;;;;;;;3.97;2.03;;;;;;;;;;5099485;28;20205;-64
2023/08/04 11:08:19;;;;;;;3.27;1.73;;;;;;;;;;5099505;28;20209;-64
2023/08/04 11:10:47;;;;;;;4.73;1.33;;;;;;;;;;5099533;28;20223;-64
2023/08/04 11:13:19;;;;;;;1.83;1.30;;;;;;;;;;5099218;28;20205;-65
2023/08/04 11:15:49;;;;;;;1.73;1.43;;;;;;;;;;5099028;28;20213;-65
2023/08/04 11:18:20;;;;;;;1.57;1.00;;;;;;;;;;5099235;28;20210;-65
2023/08/04 11:20:50;;;;;;;3.07;1.30;;;;;;;;;;5099390;28;20225;-65
2023/08/04 11:23:24;;;;;;;2.90;1.80;;;;;;;;;;5099626;28;20208;-65
2023/08/04 11:25:52;;;;;;;2.50;2.13;;;;;;;;;;5099251;28;20208;-65
2023/08/04 11:28:20;;;;;;;2.87;2.10;;;;;;;;;;5099012;28;20211;-65
2023/08/04 11:30:51;;;;;;;1.67;1.23;;;;;;;;;;5098499;28;20230;-65
2023/08/04 11:33:19;;;;;;;2.33;2.13;;;;;;;;;;5099156;28;20233;-65
2023/08/04 11:35:47;;;;;;;3.60;2.53;;;;;;;;;;5098793;28;20645;-65
2023/08/04 11:38:16;;;;;;;1.57;1.23;;;;;;;;;;5099001;28;20293;-64
2023/08/04 11:40:57;;;;;;;1.80;1.40;;;;;;;;;;5091848;28;20229;-64
2023/08/04 11:43:25;;;;;;;2.90;1.93;;;;;;;;;;5098672;28;20209;-65
2023/08/04 11:45:55;;;;;;;1.73;1.63;;;;;;;;;;5098397;28;20242;-65
2023/08/04 11:48:24;;;;;;;2.50;1.30;;;;;;;;;;5098958;28;20256;-65
2023/08/04 11:50:53;;;;;;;1.87;1.40;;;;;;;;;;5098854;28;20223;-65
2023/08/04 11:53:22;;;;;;;1.33;1.00;;;;;;;;;;5098841;28;20616;-65
2023/08/04 11:55:54;;;;;;;2.90;1.37;;;;;;;;;;5098898;28;20207;-64
2023/08/04 11:58:29;;;;;;;2.23;1.10;;;;;;;;;;5098797;28;20207;-64
2023/08/04 12:00:57;;;;;;;1.83;1.13;;;;;;;;;;5088482;28;20323;-65
2023/08/04 12:03:24;;;;;;;3.47;1.40;;;;;;;;;;5098507;28;20206;-65
2023/08/04 12:05:53;;;;;;;2.17;1.20;;;;;;;;;;5098271;28;20211;-64
2023/08/04 12:08:22;;;;;;;3.13;1.10;;;;;;;;;;5098316;28;20211;-63
2023/08/04 12:11:00;;;;;;;2.93;1.30;;;;;;;;;;5098503;28;20707;-64
2023/08/04 12:13:34;;;;;;;1.20;1.10;;;;;;;;;;5098260;28;20670;-64
2023/08/04 12:16:02;;;;;;;1.40;1.10;;;;;;;;;;5098128;28;20215;-65
2023/08/04 12:18:30;;;;;;;3.43;1.50;;;;;;;;;;5098476;28;20205;-63
2023/08/04 12:20:58;;;;;;;2.43;1.00;;;;;;;;;;5098072;28;20315;-65
2023/08/04 12:23:27;;;;;;;2.97;1.10;;;;;;;;;;5098347;28;20206;-64
2023/08/04 12:25:55;;;;;;;1.60;1.20;;;;;;;;;;5098441;28;20208;-64
2023/08/04 12:28:23;;;;;;;2.00;1.10;;;;;;;;;;5098310;28;20232;-64
2023/08/04 12:30:51;;;;;;;2.20;1.00;;;;;;;;;;5097856;28;20249;-64
2023/08/04 12:33:39;;;;;;;1.37;1.20;;;;;;;;;;5098122;28;20268;-65
2023/08/04 12:36:06;;;;;;;1.60;1.00;;;;;;;;;;5097765;28;20568;-65
2023/08/04 12:38:36;;;;;;;2.00;1.27;;;;;;;;;;5097970;28;20246;-64
2023/08/04 12:41:03;;;;;;;3.60;1.23;;;;;;;;;;5091313;28;20295;-65
2023/08/04 12:43:31;;;;;;;5.97;3.03;;;;;;;;;;5097923;28;20203;-64
2023/08/04 12:45:59;;;;;;;2.77;1.33;;;;;;;;;;5097886;28;20659;-64
2023/08/04 12:48:26;;;;;;;4.83;2.47;;;;;;;;;;5098042;28;20210;-65
2023/08/04 12:50:54;;;;;;;2.50;1.87;;;;;;;;;;5084428;28;20260;-64
2023/08/04 12:53:22;;;;;;;3.47;2.33;;;;;;;;;;5097742;28;20217;-65
2023/08/04 12:55:51;;;;;;;2.00;1.17;;;;;;;;;;5097609;28;20212;-65
2023/08/04 12:58:19;;;;;;;1.80;1.67;;;;;;;;;;5097555;28;20577;-64
2023/08/04 13:00:47;;;;;;;6.27;2.30;;;;;;;;;;5087351;28;20579;-65
2023/08/04 13:03:14;;;;;;;3.10;1.10;;;;;;;;;;5097711;28;20626;-64
2023/08/04 13:05:42;;;;;;;1.13;1.10;;;;;;;;;;5097662;28;20218;-64
2023/08/04 13:08:10;;;;;;;1.53;1.00;;;;;;;;;;5097465;28;20231;-65
2023/08/04 13:10:38;;;;;;;2.13;1.00;;;;;;;;;;5097776;28;20284;-65
2023/08/04 13:13:08;;;;;;;3.17;1.13;;;;;;;;;;5097826;28;20233;-65
2023/08/04 13:15:35;;;;;;;3.30;1.00;;;;;;;;;;5097538;28;20746;-65
2023/08/04 13:18:03;;;;;;;2.90;1.13;;;;;;;;;;5097776;28;20208;-65
2023/08/04 13:20:31;;;;;;;1.10;1.00;;;;;;;;;;5099316;28;20255;-65
2023/08/04 13:22:59;;;;;;;1.80;1.00;;;;;;;;;;5101393;28;20655;-65
2023/08/04 13:25:27;;;;;;;1.43;1.00;;;;;;;;;;5101455;28;20209;-65
2023/08/04 13:27:56;;;;;;;2.60;1.73;;;;;;;;;;5101638;28;20236;-65
2023/08/04 13:30:25;;;;;;;1.10;1.00;;;;;;;;;;5101245;28;20262;-65
2023/08/04 13:32:53;;;;;;;1.93;1.13;;;;;;;;;;5101293;28;20234;-65
2023/08/04 13:35:21;;;;;;;2.43;1.10;;;;;;;;;;5101351;28;20300;-65
2023/08/04 13:37:49;;;;;;;1.00;1.00;;;;;;;;;;5101423;28;20207;-65
2023/08/04 13:40:17;;;;;;;1.20;1.10;;;;;;;;;;5094888;28;20232;-65
2023/08/04 13:42:44;;;;;;;3.20;1.40;;;;;;;;;;5088011;28;20292;-65
2023/08/04 13:45:12;;;;;;;1.90;1.10;;;;;;;;;;5101031;28;20209;-65
2023/08/04 13:47:42;;;;;;;1.90;1.40;;;;;;;;;;5101308;28;20208;-65
2023/08/04 13:50:10;;;;;;;2.47;1.30;;;;;;;;;;5101429;28;20288;-65
2023/08/04 13:52:38;;;;;;;3.07;1.20;;;;;;;;;;5101123;28;20216;-65
2023/08/04 13:55:06;;;;;;;1.73;1.20;;;;;;;;;;5101249;28;20208;-65
2023/08/04 13:57:34;;;;;;;2.27;1.23;;;;;;;;;;5101030;28;20205;-65
2023/08/04 14:00:09;;;;;;;1.10;0.90;;;;;;;;;;5090980;28;20240;-65
2023/08/04 14:02:37;;;;;;;2.90;1.10;;;;;;;;;;5100720;28;20288;-65
2023/08/04 14:05:07;;;;;;;1.03;0.97;;;;;;;;;;5100700;28;20213;-65
2023/08/04 14:07:37;;;;;;;1.90;1.13;;;;;;;;;;5101045;28;20210;-65
2023/08/04 14:10:07;;;;;;;3.20;1.10;;;;;;;;;;5100614;28;20363;-65
2023/08/04 14:12:34;;;;;;;2.53;1.30;;;;;;;;;;5100822;28;20208;-65
2023/08/04 14:15:02;;;;;;;2.13;1.30;;;;;;;;;;5100626;28;20212;-65
2023/08/04 14:17:30;;;;;;;4.37;1.20;;;;;;;;;;5100644;28;20204;-65
2023/08/04 14:19:58;;;;;;;6.33;1.40;;;;;;;;;;5100235;28;20730;-65
2023/08/04 14:22:27;;;;;;;1.43;1.33;;;;;;;;;;5100303;28;20207;-65
2023/08/04 14:24:55;;;;;;;2.03;1.20;;;;;;;;;;5100615;28;20225;-65
2023/08/04 14:27:23;;;;;;;2.57;1.30;;;;;;;;;;5100351;28;20739;-65
2023/08/04 14:30:00;;;;;;;2.40;0.93;;;;;;;;;;5100399;28;20235;-65
2023/08/04 14:32:28;;;;;;;2.40;0.90;;;;;;;;;;5099868;28;20211;-64
2023/08/04 14:34:56;;;;;;;2.97;1.50;;;;;;;;;;5100453;28;20226;-64
2023/08/04 14:37:24;;;;;;;1.63;1.03;;;;;;;;;;5099923;28;20206;-65
2023/08/04 14:39:53;;;;;;;2.10;1.30;;;;;;;;;;5097317;28;20682;-65
2023/08/04 14:42:21;;;;;;;2.37;1.67;;;;;;;;;;5097209;28;20317;-65
2023/08/04 14:44:51;;;;;;;1.10;1.10;;;;;;;;;;5100156;28;20237;-65
2023/08/04 14:47:19;;;;;;;1.53;1.40;;;;;;;;;;5099836;28;20210;-64
2023/08/04 14:49:47;;;;;;;1.23;0.97;;;;;;;;;;5099989;28;20199;-65
2023/08/04 14:52:15;;;;;;;1.37;1.17;;;;;;;;;;5100072;28;20576;-64